createdAt,value
2019-01-24T00:00:33.095Z,7.30
2019-01-24T00:03:01.812Z,8.30
2019-01-24T00:05:30.512Z,8.70
2019-01-24T00:07:59.126Z,8.80
2019-01-24T00:10:27.791Z,9.60
2019-01-24T00:12:56.490Z,8.67
2019-01-24T00:15:25.112Z,7.73
2019-01-24T00:17:53.736Z,8.57
2019-01-24T00:20:22.455Z,6.43
2019-01-24T00:22:51.060Z,8.17
2019-01-24T00:25:19.739Z,6.97
2019-01-24T00:27:48.364Z,7.80
2019-01-24T00:30:17.352Z,9.33
2019-01-24T00:32:46.034Z,10.50
2019-01-24T00:35:14.741Z,8.67
2019-01-24T00:37:43.531Z,6.13
2019-01-24T00:40:15.208Z,6.90
2019-01-24T00:42:43.899Z,15.93
2019-01-24T00:45:12.517Z,9.87
2019-01-24T00:47:41.214Z,7.00
2019-01-24T00:50:12.311Z,7.77
2019-01-24T00:52:40.979Z,8.07
2019-01-24T00:55:12.210Z,6.03
2019-01-24T00:57:40.819Z,7.17
2019-01-24T01:00:12.397Z,6.03
2019-01-24T01:02:41.031Z,7.77
2019-01-24T01:05:12.189Z,7.53
2019-01-24T01:07:40.867Z,8.53
2019-01-24T01:10:10.878Z,8.43
2019-01-24T01:12:39.500Z,9.00
2019-01-24T01:15:11.081Z,9.57
2019-01-24T01:17:39.793Z,9.63
2019-01-24T01:20:13.753Z,10.13
2019-01-24T01:22:42.527Z,10.67
2019-01-24T01:25:12.603Z,11.43
2019-01-24T01:27:41.295Z,10.73
2019-01-24T01:30:18.856Z,12.30
2019-01-24T01:32:49.211Z,10.10
2019-01-24T01:35:17.835Z,10.17
2019-01-24T01:37:46.499Z,10.37
2019-01-24T01:40:19.833Z,10.23
2019-01-24T01:42:48.939Z,10.10
2019-01-24T01:45:21.937Z,10.50
2019-01-24T01:47:50.712Z,9.93
2019-01-24T01:50:24.150Z,9.77
2019-01-24T01:52:53.676Z,11.00
2019-01-24T01:55:23.780Z,11.00
2019-01-24T01:57:52.470Z,10.20
2019-01-24T02:00:23.182Z,10.17
2019-01-24T02:02:51.864Z,10.83
2019-01-24T02:05:20.546Z,9.73
2019-01-24T02:07:50.456Z,9.70
2019-01-24T02:10:21.063Z,10.73
2019-01-24T02:12:49.685Z,10.40
2019-01-24T02:15:19.205Z,10.20
2019-01-24T02:17:47.913Z,8.47
2019-01-24T02:20:18.858Z,9.00
2019-01-24T02:22:47.568Z,8.83
2019-01-24T02:25:16.237Z,8.87
2019-01-24T02:27:44.951Z,7.70
2019-01-24T02:30:16.541Z,10.03
2019-01-24T02:32:45.230Z,11.90
2019-01-24T02:35:13.871Z,11.53
2019-01-24T02:37:42.550Z,10.97
2019-01-24T02:40:11.570Z,11.63
2019-01-24T02:42:40.243Z,9.57
2019-01-24T02:45:12.275Z,12.50
2019-01-24T02:47:40.975Z,12.07
2019-01-24T02:50:12.633Z,11.70
2019-01-24T02:52:41.280Z,11.67
2019-01-24T02:55:12.668Z,12.40
2019-01-24T02:57:41.308Z,11.00
2019-01-24T03:00:20.926Z,12.37
2019-01-24T03:02:50.024Z,14.20
2019-01-24T03:05:20.088Z,11.00
2019-01-24T03:07:49.631Z,13.30
2019-01-24T03:10:18.377Z,13.87
2019-01-24T03:12:47.218Z,13.50
2019-01-24T03:15:20.632Z,14.37
2019-01-24T03:17:49.381Z,12.27
2019-01-24T03:20:18.731Z,12.60
2019-01-24T03:22:47.871Z,12.63
2019-01-24T03:25:17.587Z,13.37
2019-01-24T03:27:46.486Z,16.50
2019-01-24T03:30:17.330Z,12.63
2019-01-24T03:32:45.998Z,12.80
2019-01-24T03:35:22.703Z,11.43
2019-01-24T03:37:51.342Z,12.00
2019-01-24T03:40:20.000Z,11.43
2019-01-24T03:42:50.306Z,11.80
2019-01-24T03:45:19.122Z,11.77
2019-01-24T03:47:47.713Z,11.63
2019-01-24T03:50:21.296Z,11.67
2019-01-24T03:52:50.524Z,11.37
2019-01-24T03:55:21.280Z,10.40
2019-01-24T03:57:49.977Z,10.97
2019-01-24T04:00:21.449Z,12.80
2019-01-24T04:02:50.079Z,12.13
2019-01-24T04:05:19.487Z,12.17
2019-01-24T04:07:48.197Z,13.80
2019-01-24T04:10:21.526Z,12.53
2019-01-24T04:12:50.266Z,11.70
2019-01-24T04:15:21.187Z,10.83
2019-01-24T04:17:49.875Z,10.23
2019-01-24T04:20:18.523Z,13.07
2019-01-24T04:22:47.270Z,11.93
2019-01-24T04:25:15.934Z,10.43
2019-01-24T04:27:44.661Z,11.90
2019-01-24T04:30:16.069Z,14.67
2019-01-24T04:32:44.745Z,12.07
2019-01-24T04:35:19.635Z,11.13
2019-01-24T04:37:44.174Z,9.60
2019-01-24T04:40:17.770Z,8.83
2019-01-24T04:42:46.448Z,10.20
2019-01-24T04:45:16.677Z,9.07
2019-01-24T04:47:45.363Z,9.57
2019-01-24T04:50:15.967Z,9.97
2019-01-24T04:52:44.603Z,11.20
2019-01-24T04:55:15.605Z,9.33
2019-01-24T04:57:44.271Z,11.07
2019-01-24T05:00:18.735Z,11.57
2019-01-24T05:02:47.356Z,10.13
2019-01-24T05:05:16.045Z,10.30
2019-01-24T05:07:44.696Z,12.03
2019-01-24T05:10:13.999Z,12.40
2019-01-24T05:12:42.690Z,10.20
2019-01-24T05:15:11.355Z,11.93
2019-01-24T05:17:40.031Z,12.30
2019-01-24T05:20:13.555Z,12.50
2019-01-24T05:22:42.430Z,11.10
2019-01-24T05:25:13.545Z,11.50
2019-01-24T05:27:42.327Z,12.00
2019-01-24T05:30:20.002Z,14.13
2019-01-24T05:32:48.619Z,13.80
2019-01-24T05:35:17.299Z,15.57
2019-01-24T05:37:47.556Z,13.67
2019-01-24T05:40:16.183Z,15.20
2019-01-24T05:42:44.893Z,14.97
2019-01-24T05:45:14.516Z,14.00
2019-01-24T05:47:43.210Z,9.40
2019-01-24T05:50:13.649Z,8.87
2019-01-24T05:52:42.314Z,9.47
2019-01-24T05:55:14.742Z,11.37
2019-01-24T05:57:43.404Z,9.77
2019-01-24T06:00:16.808Z,10.00
2019-01-24T06:02:45.514Z,11.87
2019-01-24T06:05:14.445Z,9.90
2019-01-24T06:07:43.153Z,10.83
2019-01-24T06:10:14.961Z,11.93
2019-01-24T06:12:43.544Z,11.40
2019-01-24T06:15:15.033Z,13.80
2019-01-24T06:17:45.288Z,13.50
2019-01-24T06:20:14.897Z,14.27
2019-01-24T06:22:43.514Z,11.73
2019-01-24T06:25:14.419Z,13.43
2019-01-24T06:27:43.412Z,12.73
2019-01-24T06:30:20.252Z,12.83
2019-01-24T06:32:48.963Z,13.53
2019-01-24T06:35:17.598Z,11.83
2019-01-24T06:37:46.217Z,11.57
2019-01-24T06:40:16.608Z,14.10
2019-01-24T06:42:45.295Z,10.67
2019-01-24T06:45:53.611Z,12.47
2019-01-24T06:48:22.718Z,10.83
2019-01-24T06:50:51.422Z,13.43
2019-01-24T06:53:20.026Z,12.07
2019-01-24T06:55:48.719Z,13.80
2019-01-24T06:58:17.369Z,13.07
2019-01-24T07:00:46.065Z,12.43
2019-01-24T07:03:14.691Z,10.93
2019-01-24T07:05:43.335Z,11.43
2019-01-24T07:08:12.035Z,12.80
2019-01-24T07:10:40.633Z,12.23
2019-01-24T07:13:09.273Z,32.23
2019-01-24T07:15:37.960Z,21.57
2019-01-24T07:18:06.600Z,18.37
2019-01-24T07:20:35.293Z,18.50
2019-01-24T07:23:03.976Z,19.87
2019-01-24T07:25:32.658Z,19.67
2019-01-24T07:28:01.288Z,19.50
2019-01-24T07:30:29.975Z,19.00
2019-01-24T07:32:59.731Z,20.97
2019-01-24T07:35:28.529Z,18.83
2019-01-24T07:37:57.154Z,20.00
2019-01-24T07:40:25.991Z,20.53
2019-01-24T07:42:54.632Z,18.90
2019-01-24T07:45:32.300Z,19.90
2019-01-24T07:48:00.956Z,20.83
2019-01-24T07:50:29.601Z,21.90
2019-01-24T07:52:58.307Z,22.33
2019-01-24T07:55:26.956Z,22.57
2019-01-24T07:57:55.643Z,22.03
2019-01-24T08:00:28.976Z,21.97
2019-01-24T08:02:57.691Z,21.70
2019-01-24T08:05:28.488Z,22.80
2019-01-24T08:07:57.108Z,23.33
2019-01-24T08:10:25.846Z,23.60
2019-01-24T08:12:54.615Z,23.10
2019-01-24T08:15:24.142Z,20.83
2019-01-24T08:17:52.873Z,24.03
2019-01-24T08:20:23.670Z,22.57
2019-01-24T08:22:52.288Z,22.37
2019-01-24T08:25:21.016Z,25.87
2019-01-24T08:27:49.658Z,26.60
2019-01-24T08:30:26.862Z,28.73
2019-01-24T08:32:55.592Z,30.20
2019-01-24T08:35:24.589Z,30.53
2019-01-24T08:37:53.623Z,29.07
2019-01-24T08:40:24.383Z,25.63
2019-01-24T08:42:53.071Z,22.23
2019-01-24T08:45:23.155Z,25.00
2019-01-24T08:47:51.791Z,23.53
2019-01-24T08:50:25.681Z,22.97
2019-01-24T08:52:57.495Z,22.17
2019-01-24T08:55:29.220Z,23.13
2019-01-24T08:57:57.887Z,23.20
2019-01-24T09:00:26.508Z,26.77
2019-01-24T09:02:55.215Z,23.87
2019-01-24T09:05:24.053Z,24.93
2019-01-24T09:07:52.811Z,26.60
2019-01-24T09:10:24.051Z,27.33
2019-01-24T09:12:52.735Z,29.40
2019-01-24T09:15:21.438Z,26.73
2019-01-24T09:17:50.061Z,25.90
2019-01-24T09:20:20.318Z,26.50
2019-01-24T09:22:54.982Z,26.17
2019-01-24T09:25:19.469Z,25.80
2019-01-24T09:27:48.166Z,25.70
2019-01-24T09:30:22.380Z,27.77
2019-01-24T09:32:51.082Z,26.00
2019-01-24T09:35:19.807Z,28.33
2019-01-24T09:37:48.481Z,24.30
2019-01-24T09:40:19.383Z,24.63
2019-01-24T09:42:48.026Z,27.23
2019-01-24T09:45:21.786Z,26.40
2019-01-24T09:47:50.502Z,27.77
2019-01-24T09:50:21.783Z,29.60
2019-01-24T09:52:50.403Z,28.13
2019-01-24T09:55:19.042Z,25.23
2019-01-24T09:57:47.768Z,24.90
2019-01-24T10:00:19.053Z,27.60
2019-01-24T10:02:47.682Z,27.20
2019-01-24T10:05:17.277Z,26.37
2019-01-24T10:07:46.044Z,29.17
2019-01-24T10:10:17.367Z,27.63
2019-01-24T10:12:46.026Z,30.90
2019-01-24T10:15:16.711Z,28.97
2019-01-24T10:17:45.362Z,26.57
2019-01-24T10:20:17.095Z,26.40
2019-01-24T10:22:45.714Z,27.07
2019-01-24T10:25:17.308Z,22.50
2019-01-24T10:27:46.011Z,26.70
2019-01-24T10:30:17.569Z,27.03
2019-01-24T10:32:46.401Z,26.67
2019-01-24T10:35:15.215Z,27.67
2019-01-24T10:37:43.865Z,24.67
2019-01-24T10:40:18.509Z,29.83
2019-01-24T10:42:47.123Z,25.50
2019-01-24T10:45:18.103Z,28.47
2019-01-24T10:47:46.770Z,26.60
2019-01-24T10:50:17.688Z,25.53
2019-01-24T10:52:46.373Z,24.00
2019-01-24T10:55:19.746Z,27.63
2019-01-24T10:57:48.743Z,24.90
2019-01-24T11:00:30.037Z,24.70
2019-01-24T11:02:58.709Z,27.70
2019-01-24T11:05:27.380Z,26.23
2019-01-24T11:07:56.088Z,24.47
2019-01-24T11:10:24.773Z,23.57
2019-01-24T11:12:53.473Z,27.70
2019-01-24T11:15:25.554Z,24.47
2019-01-24T11:17:54.248Z,27.60
2019-01-24T11:20:22.940Z,26.27
2019-01-24T11:22:51.595Z,27.10
2019-01-24T11:25:22.564Z,28.80
2019-01-24T11:27:51.269Z,27.90
2019-01-24T11:30:25.376Z,26.10
2019-01-24T11:32:54.119Z,62.60
2019-01-24T11:35:25.579Z,42.57
2019-01-24T11:37:54.277Z,30.90
2019-01-24T11:40:22.893Z,28.63
2019-01-24T11:42:52.623Z,28.03
2019-01-24T11:45:36.018Z,30.87
2019-01-24T11:48:06.183Z,27.17
2019-01-24T11:50:34.816Z,30.80
2019-01-24T11:53:03.515Z,28.60
2019-01-24T11:55:32.144Z,25.87
2019-01-24T11:58:00.850Z,26.33
2019-01-24T12:00:40.985Z,29.90
2019-01-24T12:03:09.610Z,28.93
2019-01-24T12:05:38.324Z,27.60
2019-01-24T12:08:07.763Z,27.50
2019-01-24T12:10:36.481Z,27.03
2019-01-24T12:13:05.298Z,26.80
2019-01-24T12:15:33.930Z,25.30
2019-01-24T12:18:02.634Z,27.67
2019-01-24T12:20:31.256Z,24.03
2019-01-24T12:22:59.967Z,23.63
2019-01-24T12:25:28.593Z,25.77
2019-01-24T12:27:57.312Z,27.90
2019-01-24T12:30:33.857Z,25.00
2019-01-24T12:33:03.338Z,24.00
2019-01-24T12:35:31.969Z,27.77
2019-01-24T12:38:00.658Z,34.07
2019-01-24T12:40:29.279Z,37.87
2019-01-24T12:42:57.935Z,37.37
2019-01-24T12:45:34.744Z,24.37
2019-01-24T12:48:03.374Z,23.10
2019-01-24T12:50:33.041Z,25.80
2019-01-24T12:53:01.689Z,23.80
2019-01-24T12:55:30.478Z,22.90
2019-01-24T12:57:59.110Z,24.90
2019-01-24T13:00:30.657Z,25.07
2019-01-24T13:02:59.289Z,25.00
2019-01-24T13:05:28.025Z,23.30
2019-01-24T13:07:56.999Z,22.17
2019-01-24T13:10:27.604Z,25.70
2019-01-24T13:12:56.290Z,30.93
2019-01-24T13:15:27.590Z,22.77
2019-01-24T13:17:56.222Z,23.33
2019-01-24T13:20:24.898Z,27.70
2019-01-24T13:22:53.585Z,23.83
2019-01-24T13:25:27.974Z,22.10
2019-01-24T13:27:56.673Z,23.67
2019-01-24T13:30:27.711Z,26.07
2019-01-24T13:32:56.429Z,22.93
2019-01-24T13:35:25.028Z,22.50
2019-01-24T13:37:53.727Z,22.43
2019-01-24T13:40:24.708Z,25.87
2019-01-24T13:42:53.410Z,23.87
2019-01-24T13:45:25.002Z,28.20
2019-01-24T13:47:53.649Z,23.87
2019-01-24T13:50:22.345Z,24.37
2019-01-24T13:52:51.113Z,24.40
2019-01-24T13:55:19.764Z,22.50
2019-01-24T13:57:48.403Z,24.20
2019-01-24T14:00:22.693Z,23.77
2019-01-24T14:02:54.295Z,24.73
2019-01-24T14:05:22.991Z,24.97
2019-01-24T14:07:51.689Z,23.87
2019-01-24T14:10:20.407Z,22.80
2019-01-24T14:12:49.152Z,23.00
2019-01-24T14:15:19.374Z,24.33
2019-01-24T14:17:47.989Z,23.27
2019-01-24T14:20:18.922Z,24.57
2019-01-24T14:22:47.734Z,22.10
2019-01-24T14:25:18.804Z,23.13
2019-01-24T14:27:47.520Z,21.47
2019-01-24T14:30:19.333Z,23.27
2019-01-24T14:32:48.109Z,22.50
2019-01-24T14:35:16.735Z,25.40
2019-01-24T14:37:45.432Z,23.30
2019-01-24T14:40:15.307Z,23.10
2019-01-24T14:42:44.015Z,23.03
2019-01-24T14:45:18.374Z,19.53
2019-01-24T14:47:47.054Z,18.83
2019-01-24T14:50:18.393Z,18.50
2019-01-24T14:52:47.186Z,19.73
2019-01-24T14:55:15.822Z,22.70
2019-01-24T14:57:44.523Z,18.57
2019-01-24T15:00:22.030Z,20.90
2019-01-24T15:02:50.755Z,21.63
2019-01-24T15:05:19.367Z,20.20
2019-01-24T15:07:48.054Z,19.67
2019-01-24T15:10:16.978Z,20.80
2019-01-24T15:12:50.214Z,22.50
2019-01-24T15:15:22.187Z,22.00
2019-01-24T15:17:52.445Z,20.20
2019-01-24T15:20:22.920Z,21.60
2019-01-24T15:22:51.552Z,19.77
2019-01-24T15:25:24.545Z,23.20
2019-01-24T15:27:53.173Z,22.23
2019-01-24T15:30:24.740Z,21.80
2019-01-24T15:32:53.457Z,22.70
2019-01-24T15:35:22.131Z,23.03
2019-01-24T15:37:54.671Z,22.50
2019-01-24T15:40:30.096Z,21.90
2019-01-24T15:43:00.526Z,20.70
2019-01-24T15:45:30.925Z,22.13
2019-01-24T15:48:02.234Z,19.97
2019-01-24T15:50:30.942Z,21.80
2019-01-24T15:53:01.159Z,20.87
2019-01-24T15:55:32.542Z,23.50
2019-01-24T15:58:01.236Z,21.60
2019-01-24T16:00:38.906Z,20.83
2019-01-24T16:03:07.572Z,22.10
2019-01-24T16:05:36.249Z,20.90
2019-01-24T16:08:05.230Z,20.53
2019-01-24T16:10:40.033Z,20.60
2019-01-24T16:13:08.655Z,20.90
2019-01-24T16:15:39.414Z,19.20
2019-01-24T16:18:10.096Z,18.63
2019-01-24T16:20:38.832Z,20.03
2019-01-24T16:23:07.460Z,22.70
2019-01-24T16:25:36.647Z,19.40
2019-01-24T16:28:06.142Z,19.87
2019-01-24T16:30:35.963Z,20.40
2019-01-24T16:33:07.272Z,21.73
2019-01-24T16:35:35.965Z,19.37
2019-01-24T16:38:09.245Z,20.80
2019-01-24T16:40:35.125Z,22.67
2019-01-24T16:43:05.297Z,21.77
2019-01-24T16:45:33.992Z,20.30
2019-01-24T16:48:05.286Z,19.30
2019-01-24T16:50:33.875Z,19.87
2019-01-24T16:53:02.571Z,18.83
2019-01-24T16:55:31.222Z,17.70
2019-01-24T16:58:00.037Z,20.53
2019-01-24T17:00:37.866Z,22.10
2019-01-24T17:03:06.977Z,22.50
2019-01-24T17:05:35.748Z,23.73
2019-01-24T17:08:06.163Z,24.40
2019-01-24T17:10:34.827Z,23.73
2019-01-24T17:13:04.608Z,21.97
2019-01-24T17:15:33.200Z,23.97
2019-01-24T17:18:01.899Z,22.50
2019-01-24T17:20:32.015Z,20.13
2019-01-24T17:23:00.725Z,21.50
2019-01-24T17:25:33.858Z,19.00
2019-01-24T17:28:02.553Z,19.17
2019-01-24T17:30:32.616Z,20.73
2019-01-24T17:33:05.830Z,19.50
2019-01-24T17:35:34.579Z,19.17
2019-01-24T17:38:03.277Z,22.83
2019-01-24T17:40:36.419Z,21.80
2019-01-24T17:43:06.014Z,18.73
2019-01-24T17:45:34.722Z,20.57
2019-01-24T17:48:03.366Z,20.60
2019-01-24T17:50:34.586Z,21.10
2019-01-24T17:53:03.220Z,20.67
2019-01-24T17:55:37.203Z,18.07
2019-01-24T17:58:07.714Z,19.43
2019-01-24T18:00:40.808Z,20.33
2019-01-24T18:03:13.114Z,20.40
2019-01-24T18:05:41.534Z,18.33
2019-01-24T18:08:10.277Z,18.63
2019-01-24T18:10:38.955Z,15.47
2019-01-24T18:13:07.723Z,17.83
2019-01-24T18:15:37.590Z,18.03
2019-01-24T18:18:09.787Z,15.00
2019-01-24T18:20:39.652Z,15.93
2019-01-24T18:23:11.028Z,16.80
2019-01-24T18:25:39.752Z,13.13
2019-01-24T18:28:10.385Z,16.10
2019-01-24T18:30:41.894Z,14.60
2019-01-24T18:33:12.917Z,16.00
2019-01-24T18:35:41.621Z,16.97
2019-01-24T18:38:11.853Z,19.00
2019-01-24T18:40:40.492Z,18.30
2019-01-24T18:43:13.491Z,16.10
2019-01-24T18:45:48.122Z,17.60
2019-01-24T18:48:16.934Z,15.77
2019-01-24T18:50:46.500Z,15.47
2019-01-24T18:53:15.500Z,15.40
2019-01-24T18:55:44.163Z,14.17
2019-01-24T18:58:12.874Z,15.07
2019-01-24T19:00:43.018Z,16.63
2019-01-24T19:03:13.640Z,16.23
2019-01-24T19:05:42.394Z,17.10
2019-01-24T19:08:13.260Z,18.63
2019-01-24T19:10:41.694Z,17.80
2019-01-24T19:13:12.411Z,18.30
2019-01-24T19:15:43.921Z,16.63
2019-01-24T19:18:12.580Z,15.97
2019-01-24T19:20:42.803Z,16.33
2019-01-24T19:23:11.531Z,17.27
2019-01-24T19:25:40.343Z,15.30
2019-01-24T19:28:09.001Z,15.17
2019-01-24T19:30:37.654Z,17.80
2019-01-24T19:33:06.819Z,19.47
2019-01-24T19:35:35.644Z,18.50
2019-01-24T19:38:04.485Z,20.00
2019-01-24T19:40:34.111Z,18.17
2019-01-24T19:43:03.135Z,20.37
2019-01-24T19:45:31.961Z,18.73
2019-01-24T19:48:00.834Z,16.80
2019-01-24T19:50:30.227Z,17.30
2019-01-24T19:52:59.028Z,18.30
2019-01-24T19:55:29.246Z,15.30
2019-01-24T19:57:58.163Z,15.40
2019-01-24T20:00:29.338Z,17.07
2019-01-24T20:02:59.836Z,13.63
2019-01-24T20:05:29.245Z,14.73
2019-01-24T20:07:58.055Z,14.07
2019-01-24T20:10:29.620Z,13.77
2019-01-24T20:13:00.520Z,12.97
2019-01-24T20:15:31.816Z,15.10
2019-01-24T20:18:00.534Z,15.37
2019-01-24T20:20:29.373Z,15.77
2019-01-24T20:23:00.481Z,14.50
2019-01-24T20:25:31.156Z,13.97
2019-01-24T20:27:59.857Z,13.13
2019-01-24T20:30:33.705Z,14.00
2019-01-24T20:33:02.799Z,14.03
2019-01-24T20:35:40.500Z,15.77
2019-01-24T20:38:10.704Z,13.30
2019-01-24T20:40:39.820Z,13.40
2019-01-24T20:43:10.786Z,14.63
2019-01-24T20:45:40.007Z,14.00
2019-01-24T20:48:08.628Z,15.27
2019-01-24T20:50:37.335Z,15.47
2019-01-24T20:53:06.172Z,13.63
2019-01-24T20:55:35.142Z,14.00
2019-01-24T20:58:03.898Z,15.83
2019-01-24T21:00:32.648Z,14.53
2019-01-24T21:03:01.482Z,16.27
2019-01-24T21:05:30.206Z,13.87
2019-01-24T21:07:58.922Z,13.13
2019-01-24T21:10:29.425Z,13.90
2019-01-24T21:12:58.144Z,14.00
2019-01-24T21:15:26.776Z,12.57
2019-01-24T21:17:55.422Z,13.90
2019-01-24T21:20:26.446Z,14.47
2019-01-24T21:22:55.112Z,13.10
2019-01-24T21:25:24.979Z,12.40
2019-01-24T21:27:53.658Z,14.27
2019-01-24T21:30:28.020Z,12.73
2019-01-24T21:32:56.868Z,11.03
2019-01-24T21:35:25.509Z,11.87
2019-01-24T21:37:54.469Z,13.90
2019-01-24T21:40:24.648Z,12.77
2019-01-24T21:42:53.328Z,12.17
2019-01-24T21:45:30.565Z,13.13
2019-01-24T21:47:59.189Z,13.57
2019-01-24T21:50:30.304Z,14.67
2019-01-24T21:52:58.956Z,14.77
2019-01-24T21:55:27.861Z,13.20
2019-01-24T21:57:56.773Z,10.27
2019-01-24T22:00:27.834Z,12.87
2019-01-24T22:02:56.586Z,13.37
2019-01-24T22:05:26.975Z,12.97
2019-01-24T22:07:57.178Z,10.80
2019-01-24T22:10:39.998Z,12.30
2019-01-24T22:13:08.636Z,11.50
2019-01-24T22:15:37.353Z,12.40
2019-01-24T22:18:09.876Z,11.60
2019-01-24T22:20:43.302Z,12.60
2019-01-24T22:23:11.924Z,12.83
2019-01-24T22:25:45.034Z,13.40
2019-01-24T22:28:13.696Z,11.53
2019-01-24T22:30:44.495Z,11.87
2019-01-24T22:33:13.191Z,10.90
2019-01-24T22:35:41.856Z,13.10
2019-01-24T22:38:10.642Z,10.70
2019-01-24T22:40:39.272Z,10.27
2019-01-24T22:43:08.065Z,12.43
2019-01-24T22:45:36.691Z,10.20
2019-01-24T22:48:06.115Z,12.60
2019-01-24T22:50:34.723Z,11.03
2019-01-24T22:53:03.408Z,10.97
2019-01-24T22:55:32.097Z,11.43
2019-01-24T22:58:00.760Z,12.13
2019-01-24T23:00:51.810Z,11.50
2019-01-24T23:03:26.162Z,12.10
2019-01-24T23:05:54.804Z,10.87
2019-01-24T23:08:23.496Z,11.17
2019-01-24T23:10:52.112Z,11.40
2019-01-24T23:13:20.889Z,12.13
2019-01-24T23:15:49.574Z,10.70
2019-01-24T23:18:18.185Z,9.37
2019-01-24T23:20:46.907Z,13.90
2019-01-24T23:23:15.508Z,11.53
2019-01-24T23:25:44.203Z,10.60
2019-01-24T23:28:12.842Z,13.50
2019-01-24T23:30:41.543Z,12.77
2019-01-24T23:33:10.168Z,12.07
2019-01-24T23:35:38.826Z,11.30
2019-01-24T23:38:07.499Z,10.00
2019-01-24T23:40:36.182Z,8.97
2019-01-24T23:43:05.238Z,10.97
2019-01-24T23:45:33.925Z,9.37
2019-01-24T23:48:02.631Z,12.13
2019-01-24T23:50:31.310Z,11.70
2019-01-24T23:52:59.998Z,10.23
2019-01-24T23:55:28.622Z,11.07
2019-01-24T23:57:57.325Z,10.43
